Time;durP1;ratioP1;P1;durP2;ratioP2;P2;SDS_P1;SDS_P2;PMS_P1;PMS_P2;Temp;Humidity;BMP_temperature;BMP_pressure;BME280_temperature;BME280_humidity;BME280_pressure;Samples;Min_cycle;Max_cycle;Signal;HPM_P1;HPM_P2
2021/08/24 00:00:16;;;;;;;1.58;1.58;;;21.00;72.10;;;;;;5067056;28;20222;-77
2021/08/24 00:02:42;;;;;;;1.80;1.80;;;21.00;71.60;;;;;;5074960;28;20190;-77
2021/08/24 00:05:10;;;;;;;1.73;1.65;;;21.00;71.30;;;;;;5071447;28;20178;-77
2021/08/24 00:07:35;;;;;;;7.25;1.73;;;21.00;72.20;;;;;;5074777;28;20657;-77
2021/08/24 00:10:01;;;;;;;1.52;1.52;;;20.90;72.30;;;;;;5072099;28;20215;-77
2021/08/24 00:12:27;;;;;;;1.92;1.90;;;20.90;72.00;;;;;;5069057;28;20189;-77
2021/08/24 00:14:53;;;;;;;2.10;1.80;;;20.90;72.00;;;;;;5073756;28;20189;-77
2021/08/24 00:17:18;;;;;;;1.90;1.80;;;20.90;72.60;;;;;;5073442;28;20488;-77
2021/08/24 00:19:44;;;;;;;2.70;1.33;;;20.80;72.10;;;;;;5073499;28;20299;-77
2021/08/24 00:22:10;;;;;;;2.13;1.98;;;20.80;72.30;;;;;;5075263;28;20216;-77
2021/08/24 00:24:36;;;;;;;1.52;1.52;;;20.80;71.40;;;;;;5071860;28;20187;-76
2021/08/24 00:27:01;;;;;;;1.95;1.60;;;20.80;73.20;;;;;;5072709;28;20571;-77
2021/08/24 00:29:27;;;;;;;1.73;1.63;;;20.70;72.20;;;;;;5070796;28;20348;-77
2021/08/24 00:31:53;;;;;;;2.40;1.80;;;;;;;;;;5073531;28;20616;-77
2021/08/24 00:34:19;;;;;;;1.67;1.60;;;20.70;73.80;;;;;;5073858;28;20673;-77
2021/08/24 00:36:45;;;;;;;2.45;1.50;;;20.70;73.90;;;;;;5076937;28;20269;-77
2021/08/24 00:39:10;;;;;;;1.70;1.65;;;20.60;73.60;;;;;;5073538;28;20274;-77
2021/08/24 00:41:37;;;;;;;3.78;1.80;;;20.60;73.80;;;;;;5076915;28;20212;-77
2021/08/24 00:44:05;;;;;;;2.20;1.80;;;20.60;74.70;;;;;;5076611;28;20180;-77
2021/08/24 00:46:44;;;;;;;1.40;1.40;;;20.50;75.10;;;;;;5075558;28;20183;-77
2021/08/24 00:49:18;;;;;;;2.22;2.03;;;20.50;75.10;;;;;;5072678;28;20190;-77
2021/08/24 00:51:59;;;;;;;1.88;1.77;;;20.40;73.40;;;;;;5071629;28;20194;-77
2021/08/24 00:54:26;;;;;;;1.60;1.60;;;20.50;73.90;;;;;;5071188;28;20182;-77
2021/08/24 00:56:56;;;;;;;1.70;1.70;;;20.50;75.20;;;;;;5067285;28;20550;-77
2021/08/24 00:59:23;;;;;;;1.90;1.45;;;20.40;74.50;;;;;;5070226;28;20625;-77
2021/08/24 01:01:50;;;;;;;1.90;1.80;;;20.40;75.80;;;;;;5071719;28;20753;-77
2021/08/24 01:04:17;;;;;;;1.85;1.10;;;20.40;74.70;;;;;;5072334;28;20225;-77
2021/08/24 01:06:53;;;;;;;1.58;1.52;;;20.40;75.90;;;;;;5071042;28;20204;-77
2021/08/24 01:09:37;;;;;;;1.42;1.35;;;20.30;75.10;;;;;;5069616;28;20210;-77
2021/08/24 01:12:38;;;;;;;2.35;1.60;;;20.40;75.50;;;;;;5067436;28;20183;-77
2021/08/24 01:15:26;;;;;;;1.98;1.88;;;20.30;76.50;;;;;;5010013;28;20277;-77
2021/08/24 01:18:39;;;;;;;2.78;1.40;;;20.30;75.60;;;;;;5000284;28;20713;-77
2021/08/24 01:21:04;;;;;;;2.10;2.00;;;20.30;75.80;;;;;;4950944;28;20382;-77
2021/08/24 01:23:51;;;;;;;2.17;2.08;;;20.30;74.90;;;;;;4955090;28;20640;-76
2021/08/24 01:26:37;;;;;;;2.60;1.95;;;20.30;75.20;;;;;;4954357;28;20258;-77
2021/08/24 01:29:31;;;;;;;1.90;1.80;;;20.30;75.10;;;;;;4949742;28;20261;-77
2021/08/24 01:32:02;;;;;;;2.38;2.03;;;20.20;75.60;;;;;;4937441;28;20229;-77
2021/08/24 01:34:54;;;;;;;3.38;1.75;;;20.20;74.90;;;;;;4949502;28;20214;-77
2021/08/24 01:37:46;;;;;;;6.75;1.88;;;20.20;75.40;;;;;;4957511;28;20202;-77
2021/08/24 01:40:18;;;;;;;2.05;2.00;;;20.20;75.70;;;;;;4916846;29;20659;-77
2021/08/24 01:42:44;;;;;;;1.40;1.38;;;20.20;76.00;;;;;;4911875;29;20206;-77
2021/08/24 01:45:34;;;;;;;2.15;2.05;;;20.20;75.90;;;;;;4916924;29;20226;-77
2021/08/24 01:48:06;;;;;;;2.33;1.42;;;20.10;75.10;;;;;;4918514;29;21014;-77
2021/08/24 01:50:46;;;;;;;1.70;1.60;;;20.10;75.90;;;;;;4915628;29;20774;-77
2021/08/24 01:53:27;;;;;;;2.05;1.95;;;20.10;75.00;;;;;;4899953;29;20330;-78
2021/08/24 01:56:16;;;;;;;1.83;1.80;;;20.10;74.80;;;;;;4913680;28;20198;-77
2021/08/24 01:58:49;;;;;;;1.60;1.60;;;20.10;75.80;;;;;;4972548;28;20205;-77
2021/08/24 02:01:19;;;;;;;1.52;1.42;;;20.10;75.10;;;;;;4955889;28;20316;-77
2021/08/24 02:03:50;;;;;;;1.55;1.55;;;20.00;75.30;;;;;;4969838;28;20194;-77
2021/08/24 02:06:24;;;;;;;1.58;1.55;;;20.00;76.40;;;;;;4954855;28;20710;-77
2021/08/24 02:08:54;;;;;;;2.10;2.00;;;20.00;76.00;;;;;;4973552;28;20255;-77
2021/08/24 02:11:20;;;;;;;1.95;1.95;;;20.00;75.40;;;;;;4969579;28;20194;-77
2021/08/24 02:13:50;;;;;;;1.73;1.73;;;19.90;76.00;;;;;;4968021;28;20206;-77
2021/08/24 02:16:24;;;;;;;5.90;2.08;;;19.90;76.30;;;;;;4976185;28;20182;-77
2021/08/24 02:19:00;;;;;;;1.55;1.55;;;19.90;76.50;;;;;;5066690;28;20187;-77
2021/08/24 02:21:33;;;;;;;3.47;2.00;;;19.80;76.50;;;;;;5068389;28;20237;-77
2021/08/24 02:24:04;;;;;;;2.00;1.90;;;19.80;76.70;;;;;;5074273;28;20188;-77
2021/08/24 02:26:32;;;;;;;2.03;1.90;;;19.70;76.40;;;;;;5073400;28;20186;-77
2021/08/24 02:28:59;;;;;;;1.88;1.77;;;19.70;78.00;;;;;;5071176;28;20186;-77
2021/08/24 02:31:34;;;;;;;2.92;2.00;;;19.60;77.80;;;;;;5068004;28;20251;-78
2021/08/24 02:34:06;;;;;;;1.90;1.90;;;19.60;78.60;;;;;;5064256;28;20213;-77
2021/08/24 02:36:35;;;;;;;2.20;2.10;;;19.50;78.20;;;;;;5065326;28;20198;-77
2021/08/24 02:39:14;;;;;;;1.60;1.50;;;19.40;78.30;;;;;;5068738;28;20267;-77
2021/08/24 02:42:32;;;;;;;1.63;1.58;;;19.40;79.00;;;;;;5070478;28;20198;-77
2021/08/24 02:45:08;;;;;;;5.15;2.00;;;19.30;79.60;;;;;;4981603;28;20194;-77
2021/08/24 02:47:34;;;;;;;2.30;2.20;;;19.30;79.00;;;;;;4981575;28;20208;-77
2021/08/24 02:50:02;;;;;;;1.95;1.85;;;19.20;80.90;;;;;;4981855;28;20189;-77
2021/08/24 02:52:29;;;;;;;2.30;1.92;;;19.20;79.00;;;;;;4981628;28;20584;-76
2021/08/24 02:54:55;;;;;;;2.05;1.85;;;19.20;78.90;;;;;;4980972;28;20244;-77
2021/08/24 02:57:21;;;;;;;2.05;1.88;;;19.10;79.20;;;;;;4981498;28;20636;-77
2021/08/24 02:59:46;;;;;;;2.22;2.13;;;19.10;81.10;;;;;;4980890;28;20304;-78
2021/08/24 03:02:13;;;;;;;2.17;2.08;;;19.10;79.30;;;;;;4981203;28;20194;-77
2021/08/24 03:04:40;;;;;;;3.50;1.70;;;19.00;80.30;;;;;;4981312;28;20186;-77
2021/08/24 03:07:12;;;;;;;2.78;1.70;;;19.00;79.80;;;;;;4980991;28;20202;-76
2021/08/24 03:09:40;;;;;;;1.92;1.70;;;19.00;79.20;;;;;;4981323;28;20193;-77
2021/08/24 03:12:24;;;;;;;2.65;1.75;;;19.00;81.10;;;;;;4981738;28;20233;-77
2021/08/24 03:15:12;;;;;;;2.55;2.45;;;19.00;81.90;;;;;;4980384;28;20272;-77
2021/08/24 03:17:51;;;;;;;2.17;2.08;;;19.00;82.00;;;;;;4980241;28;20233;-77
2021/08/24 03:20:22;;;;;;;2.75;2.63;;;18.90;81.80;;;;;;5013261;28;20338;-77
2021/08/24 03:22:48;;;;;;;3.03;2.35;;;19.00;79.70;;;;;;5065733;28;20647;-77
2021/08/24 03:25:15;;;;;;;3.38;2.25;;;19.00;80.00;;;;;;5068194;28;20206;-77
2021/08/24 03:27:45;;;;;;;4.15;2.40;;;19.00;79.90;;;;;;5064813;28;20251;-77
2021/08/24 03:30:15;;;;;;;3.08;2.83;;;18.90;79.60;;;;;;5067933;28;20194;-77
2021/08/24 03:32:41;;;;;;;2.47;2.38;;;18.90;81.00;;;;;;5067285;28;20613;-77
2021/08/24 03:35:08;;;;;;;2.38;2.28;;;18.80;81.00;;;;;;5064761;28;20666;-77
2021/08/24 03:37:34;;;;;;;3.00;2.17;;;18.90;79.60;;;;;;5066897;28;20698;-77
2021/08/24 03:40:00;;;;;;;1.92;1.85;;;18.80;81.00;;;;;;5067273;28;20306;-77
2021/08/24 03:42:26;;;;;;;3.50;2.47;;;18.90;79.90;;;;;;5072544;28;20274;-78
2021/08/24 03:44:52;;;;;;;2.60;2.40;;;18.80;79.70;;;;;;5065286;28;20179;-77
2021/08/24 03:47:17;;;;;;;2.25;2.17;;;18.80;79.40;;;;;;5066540;28;20180;-77
2021/08/24 03:49:43;;;;;;;2.35;2.22;;;18.80;79.50;;;;;;5068367;28;20649;-77
2021/08/24 03:52:09;;;;;;;2.03;1.95;;;18.70;80.00;;;;;;5067991;28;20249;-76
2021/08/24 03:54:35;;;;;;;2.60;2.50;;;18.80;78.90;;;;;;5068386;28;20235;-77
2021/08/24 03:57:01;;;;;;;3.97;2.20;;;18.70;78.70;;;;;;5070409;28;20195;-77
2021/08/24 03:59:27;;;;;;;2.50;2.30;;;18.70;78.70;;;;;;5075113;28;20750;-76
2021/08/24 04:01:52;;;;;;;2.72;2.47;;;18.70;78.60;;;;;;5073932;28;20188;-77
2021/08/24 04:04:18;;;;;;;2.60;2.50;;;18.70;80.60;;;;;;5072300;28;20267;-76
2021/08/24 04:06:44;;;;;;;2.45;2.35;;;18.80;79.70;;;;;;5067783;28;20645;-76
2021/08/24 04:09:09;;;;;;;2.30;2.20;;;18.70;80.10;;;;;;5069701;28;20178;-77
2021/08/24 04:11:35;;;;;;;2.67;2.13;;;18.80;80.10;;;;;;5070100;28;20189;-76
2021/08/24 04:14:01;;;;;;;2.22;2.03;;;18.80;81.50;;;;;;5068321;28;20236;-76
2021/08/24 04:16:27;;;;;;;2.95;2.63;;;18.80;80.10;;;;;;5065423;28;20182;-76
2021/08/24 04:18:53;;;;;;;2.00;2.00;;;18.80;80.00;;;;;;5070833;28;20178;-76
2021/08/24 04:21:19;;;;;;;2.60;2.50;;;18.80;80.20;;;;;;5067358;28;20766;-76
2021/08/24 04:23:47;;;;;;;2.20;2.10;;;18.80;80.30;;;;;;5067735;28;20206;-75
2021/08/24 04:26:13;;;;;;;2.67;2.40;;;18.90;80.10;;;;;;5064491;28;20218;-78
2021/08/24 04:28:40;;;;;;;4.18;2.35;;;18.90;80.30;;;;;;5069066;28;20189;-77
2021/08/24 04:31:09;;;;;;;1.95;1.85;;;18.90;82.50;;;;;;5067561;28;20262;-77
2021/08/24 04:33:35;;;;;;;2.53;2.33;;;19.00;80.70;;;;;;5069823;28;20209;-75
2021/08/24 04:36:02;;;;;;;2.65;2.55;;;19.00;80.90;;;;;;5067175;28;20187;-75
2021/08/24 04:38:28;;;;;;;8.38;2.50;;;19.00;81.20;;;;;;5074270;28;20202;-75
2021/08/24 04:40:54;;;;;;;1.98;1.88;;;19.00;81.30;;;;;;5069945;28;20213;-78
2021/08/24 04:43:21;;;;;;;2.67;2.47;;;19.00;81.10;;;;;;5072619;28;20191;-75
2021/08/24 04:45:48;;;;;;;2.47;2.30;;;19.00;81.40;;;;;;5070443;28;20209;-75
2021/08/24 04:48:14;;;;;;;2.40;2.30;;;19.00;81.30;;;;;;5075632;28;20178;-75
2021/08/24 04:50:41;;;;;;;6.15;2.90;;;19.00;81.30;;;;;;5068532;28;20667;-75
2021/08/24 04:53:06;;;;;;;5.25;2.53;;;19.10;80.90;;;;;;5067216;28;20616;-75
2021/08/24 04:55:33;;;;;;;2.80;2.60;;;19.10;80.20;;;;;;5071434;28;20195;-78
2021/08/24 04:58:01;;;;;;;2.67;2.58;;;19.10;79.80;;;;;;5069541;28;20186;-75
2021/08/24 05:00:27;;;;;;;3.90;3.17;;;19.20;79.70;;;;;;5085704;28;20241;-76
2021/08/24 05:02:53;;;;;;;2.65;2.55;;;;;;;;;;5075033;28;20287;-76
2021/08/24 05:05:19;;;;;;;7.30;3.30;;;19.30;79.40;;;;;;5069489;28;20178;-75
2021/08/24 05:07:45;;;;;;;3.28;3.17;;;19.30;79.20;;;;;;5066855;28;20179;-76
2021/08/24 05:10:10;;;;;;;2.60;2.50;;;19.40;79.20;;;;;;5077296;28;20738;-75
2021/08/24 05:12:36;;;;;;;2.25;2.10;;;19.40;79.50;;;;;;5077762;28;20182;-75
2021/08/24 05:15:02;;;;;;;4.65;2.55;;;19.40;78.90;;;;;;5076108;28;20555;-75
2021/08/24 05:17:28;;;;;;;2.80;2.60;;;19.50;78.70;;;;;;5072057;28;20194;-75
2021/08/24 05:19:54;;;;;;;4.40;2.42;;;19.50;78.70;;;;;;5074682;28;20584;-76
2021/08/24 05:22:20;;;;;;;2.85;2.65;;;19.60;78.70;;;;;;5072369;28;20182;-75
2021/08/24 05:24:45;;;;;;;2.85;2.75;;;19.60;78.70;;;;;;5071680;28;20701;-76
2021/08/24 05:27:11;;;;;;;4.55;3.05;;;19.70;78.40;;;;;;5070128;28;20185;-75
2021/08/24 05:29:37;;;;;;;3.17;2.40;;;19.70;78.30;;;;;;5070112;28;20191;-75
2021/08/24 05:32:03;;;;;;;2.33;2.22;;;19.70;78.10;;;;;;5067216;28;20578;-76
2021/08/24 05:34:29;;;;;;;2.58;2.45;;;19.80;78.00;;;;;;5069887;28;20701;-74
2021/08/24 05:36:55;;;;;;;3.63;2.80;;;19.80;77.90;;;;;;5070198;28;20178;-74
2021/08/24 05:39:22;;;;;;;2.65;2.47;;;19.90;78.20;;;;;;5066488;28;20187;-76
2021/08/24 05:41:48;;;;;;;6.07;3.10;;;19.90;78.20;;;;;;5069697;28;20186;-78
2021/08/24 05:44:14;;;;;;;3.10;2.90;;;20.00;78.20;;;;;;5071493;28;20190;-76
2021/08/24 05:46:40;;;;;;;3.70;3.40;;;20.00;78.00;;;;;;5074144;28;20581;-75
2021/08/24 05:49:08;;;;;;;3.40;3.03;;;20.10;78.00;;;;;;5072285;28;20191;-76
2021/08/24 05:51:35;;;;;;;2.95;2.75;;;20.10;77.90;;;;;;5067955;28;20190;-76
2021/08/24 05:54:01;;;;;;;5.32;2.70;;;20.20;77.80;;;;;;5070574;28;20292;-77
2021/08/24 05:56:28;;;;;;;7.25;3.40;;;20.30;77.70;;;;;;5068671;28;20256;-75
2021/08/24 05:58:54;;;;;;;4.00;3.17;;;20.30;77.60;;;;;;5077391;28;20182;-78
2021/08/24 06:01:26;;;;;;;3.35;3.03;;;20.40;77.60;;;;;;5066947;28;20730;-78
2021/08/24 06:03:52;;;;;;;6.55;3.13;;;20.50;78.00;;;;;;5071911;28;20211;-78
2021/08/24 06:06:24;;;;;;;11.40;3.53;;;20.50;77.40;;;;;;5072618;28;20284;-77
2021/08/24 06:08:49;;;;;;;4.38;3.97;;;20.50;78.90;;;;;;5074377;28;20187;-76
2021/08/24 06:11:22;;;;;;;5.05;3.97;;;20.60;78.00;;;;;;5069049;28;20191;-76
2021/08/24 06:13:48;;;;;;;3.88;3.63;;;20.60;77.40;;;;;;5072682;28;20600;-77
2021/08/24 06:16:14;;;;;;;7.20;3.58;;;20.70;77.50;;;;;;5070614;28;20721;-77
2021/08/24 06:18:40;;;;;;;3.35;3.15;;;20.80;77.70;;;;;;5072827;28;20187;-77
2021/08/24 06:21:06;;;;;;;4.20;3.90;;;20.80;77.60;;;;;;5073638;28;20320;-76
2021/08/24 06:23:32;;;;;;;7.57;3.33;;;20.90;77.40;;;;;;5068657;28;20183;-77
2021/08/24 06:25:58;;;;;;;4.03;3.72;;;21.00;77.50;;;;;;5066069;28;20675;-76
2021/08/24 06:28:24;;;;;;;3.33;3.13;;;21.00;77.10;;;;;;5069595;28;20183;-77
2021/08/24 06:30:50;;;;;;;4.85;3.85;;;21.10;77.00;;;;;;5067706;28;20183;-76
2021/08/24 06:33:16;;;;;;;6.35;3.92;;;21.10;76.80;;;;;;5070460;28;20182;-76
2021/08/24 06:35:42;;;;;;;3.78;3.40;;;21.20;76.90;;;;;;5065750;28;20571;-76
2021/08/24 06:38:07;;;;;;;3.72;3.53;;;21.30;77.00;;;;;;5066636;28;20183;-77
2021/08/24 06:40:33;;;;;;;4.40;4.05;;;21.30;76.70;;;;;;5065518;28;20727;-76
2021/08/24 06:43:00;;;;;;;4.45;3.75;;;21.40;78.60;;;;;;5068030;28;20190;-77
2021/08/24 06:45:30;;;;;;;10.63;4.00;;;21.50;76.70;;;;;;5066503;28;20183;-75
2021/08/24 06:47:56;;;;;;;4.45;4.03;;;21.50;76.40;;;;;;5074901;28;20564;-75
2021/08/24 06:50:24;;;;;;;5.32;3.38;;;21.60;76.40;;;;;;5066933;28;20189;-75
2021/08/24 06:52:50;;;;;;;5.93;3.45;;;21.70;76.70;;;;;;5071613;28;20183;-75
2021/08/24 06:55:16;;;;;;;4.65;3.75;;;21.80;76.20;;;;;;5068501;28;20182;-76
2021/08/24 06:57:43;;;;;;;6.05;3.92;;;21.90;75.50;;;;;;5070583;28;20186;-76
2021/08/24 07:00:16;;;;;;;3.67;3.47;;;21.90;75.70;;;;;;5067401;28;20714;-76
2021/08/24 07:02:44;;;;;;;6.78;3.03;;;22.00;74.90;;;;;;5069718;28;20198;-75
2021/08/24 07:05:11;;;;;;;3.42;3.13;;;22.00;74.70;;;;;;5072208;28;20182;-75
2021/08/24 07:07:37;;;;;;;3.55;3.25;;;22.10;74.90;;;;;;5065816;28;20179;-75
2021/08/24 07:10:05;;;;;;;5.75;3.92;;;22.20;75.00;;;;;;5071541;28;20186;-75
2021/08/24 07:12:31;;;;;;;3.65;2.90;;;22.20;74.70;;;;;;5074788;28;20186;-74
2021/08/24 07:14:57;;;;;;;4.93;4.03;;;22.30;74.80;;;;;;5073090;28;20190;-76
2021/08/24 07:17:25;;;;;;;3.15;3.05;;;22.40;74.60;;;;;;5068132;28;20320;-75
2021/08/24 07:19:51;;;;;;;3.63;3.33;;;22.50;74.40;;;;;;5066226;28;20607;-75
2021/08/24 07:22:17;;;;;;;4.22;3.80;;;22.60;74.30;;;;;;5076552;28;20338;-77
2021/08/24 07:24:42;;;;;;;7.68;3.80;;;22.60;74.00;;;;;;5071553;28;20318;-77
2021/08/24 07:27:08;;;;;;;6.72;3.78;;;22.70;74.60;;;;;;5074505;28;20185;-76
2021/08/24 07:29:34;;;;;;;3.65;3.42;;;22.70;72.90;;;;;;5069761;28;20187;-76
2021/08/24 07:32:00;;;;;;;3.22;3.03;;;22.70;73.10;;;;;;5070116;28;20572;-77
2021/08/24 07:34:26;;;;;;;8.55;3.50;;;22.70;73.80;;;;;;5067540;28;20183;-76
2021/08/24 07:36:53;;;;;;;3.53;3.38;;;22.80;73.00;;;;;;5068079;28;20182;-77
2021/08/24 07:39:19;;;;;;;3.58;3.38;;;22.80;73.10;;;;;;5066976;28;20657;-77
2021/08/24 07:41:44;;;;;;;3.53;3.28;;;22.90;73.30;;;;;;5066350;28;20183;-77
2021/08/24 07:44:10;;;;;;;4.13;2.95;;;23.00;73.40;;;;;;5067583;28;20205;-77
2021/08/24 07:46:36;;;;;;;3.30;3.20;;;23.10;73.00;;;;;;5065701;28;20182;-77
2021/08/24 07:49:02;;;;;;;4.50;3.53;;;23.20;72.70;;;;;;5061810;28;20190;-77
2021/08/24 07:51:28;;;;;;;3.42;3.22;;;23.30;72.80;;;;;;5072614;28;20569;-77
2021/08/24 07:53:53;;;;;;;3.15;2.90;;;23.40;72.00;;;;;;5067242;28;20725;-77
2021/08/24 07:56:21;;;;;;;4.45;3.38;;;23.50;72.70;;;;;;5072613;28;20574;-77
2021/08/24 07:58:50;;;;;;;4.80;3.63;;;23.50;71.70;;;;;;5066506;28;20178;-77
2021/08/24 08:01:16;;;;;;;4.05;3.40;;;23.60;71.30;;;;;;5066436;28;20742;-76
2021/08/24 08:03:42;;;;;;;3.58;3.20;;;23.70;70.80;;;;;;5068453;28;20178;-77
2021/08/24 08:06:07;;;;;;;3.13;2.83;;;23.80;70.60;;;;;;5072686;28;20579;-77
2021/08/24 08:08:33;;;;;;;4.93;3.88;;;23.80;70.20;;;;;;5074163;28;20187;-78
2021/08/24 08:10:59;;;;;;;5.60;3.58;;;23.90;70.20;;;;;;5075770;28;20262;-77
2021/08/24 08:13:27;;;;;;;3.20;3.08;;;24.00;70.30;;;;;;5067645;28;20651;-77
2021/08/24 08:15:54;;;;;;;3.78;3.58;;;24.20;69.50;;;;;;5071466;28;20186;-77
2021/08/24 08:18:19;;;;;;;3.70;3.40;;;24.20;68.60;;;;;;5077795;28;20189;-77
2021/08/24 08:20:46;;;;;;;5.30;3.85;;;24.20;69.10;;;;;;5075077;28;20691;-77
2021/08/24 08:23:14;;;;;;;3.38;3.08;;;24.30;68.90;;;;;;5074128;28;20613;-77
2021/08/24 08:25:41;;;;;;;3.40;3.20;;;24.40;69.30;;;;;;5073505;28;20687;-76
2021/08/24 08:28:07;;;;;;;4.03;3.70;;;24.60;69.10;;;;;;5076454;28;20263;-75
2021/08/24 08:30:34;;;;;;;3.83;3.53;;;24.70;68.10;;;;;;5070624;28;20275;-77
2021/08/24 08:33:02;;;;;;;3.70;3.53;;;24.80;68.90;;;;;;5072786;28;20181;-77
2021/08/24 08:35:28;;;;;;;6.47;3.65;;;24.80;67.60;;;;;;5073649;28;20636;-76
2021/08/24 08:37:54;;;;;;;4.20;3.97;;;25.00;68.10;;;;;;5075516;28;20676;-77
2021/08/24 08:40:53;;;;;;;4.20;3.10;;;25.10;67.70;;;;;;5076471;28;20223;-77
2021/08/24 08:43:31;;;;;;;4.00;3.35;;;25.20;67.30;;;;;;5071325;28;20186;-76
2021/08/24 08:46:07;;;;;;;4.50;3.10;;;25.40;67.80;;;;;;5070220;28;20635;-75
2021/08/24 08:48:50;;;;;;;3.53;3.25;;;25.60;66.40;;;;;;5068371;28;20182;-76
2021/08/24 08:51:35;;;;;;;3.63;3.40;;;25.80;67.10;;;;;;5070191;28;20195;-75
2021/08/24 08:54:13;;;;;;;4.68;3.30;;;26.00;65.80;;;;;;5072410;28;20190;-75
2021/08/24 08:56:50;;;;;;;4.03;3.65;;;26.20;65.20;;;;;;5068860;28;20302;-75
2021/08/24 08:59:46;;;;;;;3.15;3.05;;;26.40;65.20;;;;;;5073306;28;20214;-75
2021/08/24 09:02:40;;;;;;;2.95;2.78;;;26.70;63.90;;;;;;5066497;28;20190;-76
2021/08/24 09:05:09;;;;;;;3.35;3.25;;;27.00;62.90;;;;;;5065008;28;20783;-76
2021/08/24 09:07:42;;;;;;;4.28;3.78;;;27.30;62.10;;;;;;5075877;28;20182;-75
2021/08/24 09:10:15;;;;;;;2.75;2.65;;;27.60;61.50;;;;;;5071553;28;20311;-75
2021/08/24 09:12:45;;;;;;;2.40;2.30;;;28.30;58.80;;;;;;5070453;28;20277;-76
2021/08/24 09:15:17;;;;;;;2.70;2.60;;;28.30;58.80;;;;;;5071895;28;20187;-75
2021/08/24 09:17:43;;;;;;;2.67;2.47;;;28.80;54.80;;;;;;5071423;28;20563;-75
2021/08/24 09:20:13;;;;;;;2.70;2.60;;;29.10;57.00;;;;;;5071061;28;20218;-75
2021/08/24 09:22:40;;;;;;;3.22;3.03;;;29.40;56.70;;;;;;5071912;28;20664;-76
2021/08/24 09:25:12;;;;;;;2.58;2.47;;;30.00;55.80;;;;;;5071458;28;20194;-76
2021/08/24 09:27:50;;;;;;;3.10;2.80;;;30.60;54.70;;;;;;5072008;28;20573;-76
2021/08/24 09:30:16;;;;;;;6.13;2.80;;;31.30;52.60;;;;;;5066728;28;20604;-75
2021/08/24 09:32:42;;;;;;;2.50;2.40;;;32.10;51.90;;;;;;5066955;28;20203;-76
2021/08/24 09:35:43;;;;;;;3.20;3.05;;;32.80;51.60;;;;;;5077123;28;20218;-75
2021/08/24 09:38:21;;;;;;;3.08;2.95;;;33.70;50.20;;;;;;5091975;28;20175;-75
2021/08/24 09:40:50;;;;;;;2.80;2.63;;;34.50;49.90;;;;;;5072573;28;20219;-75
2021/08/24 09:43:34;;;;;;;2.95;2.85;;;35.30;49.30;;;;;;5073284;28;20182;-75
2021/08/24 09:46:22;;;;;;;2.92;2.83;;;36.00;47.80;;;;;;5076818;28;20693;-76
2021/08/24 09:48:50;;;;;;;6.47;3.47;;;36.30;46.60;;;;;;5071951;28;20186;-75
2021/08/24 09:51:34;;;;;;;2.90;2.80;;;36.50;47.40;;;;;;5071346;28;20726;-75
2021/08/24 09:54:04;;;;;;;3.00;2.83;;;36.80;46.50;;;;;;5070990;28;20182;-75
2021/08/24 09:56:37;;;;;;;2.70;2.50;;;37.20;47.20;;;;;;5069666;28;20190;-75
2021/08/24 09:59:03;;;;;;;2.78;2.67;;;37.60;45.70;;;;;;5069925;28;20189;-75
2021/08/24 10:01:50;;;;;;;2.85;2.80;;;38.20;46.20;;;;;;5069121;28;20751;-75
2021/08/24 10:04:17;;;;;;;3.55;3.35;;;38.70;44.90;;;;;;5071921;28;20186;-75
2021/08/24 10:07:05;;;;;;;3.33;3.17;;;39.20;45.20;;;;;;5065922;28;20193;-76
2021/08/24 10:09:34;;;;;;;3.05;2.97;;;39.50;43.40;;;;;;5068299;28;20641;-76
2021/08/24 10:12:21;;;;;;;3.08;2.97;;;40.00;43.80;;;;;;5065978;28;20315;-76
2021/08/24 10:14:49;;;;;;;3.47;3.38;;;40.50;43.10;;;;;;5063661;28;20191;-77
2021/08/24 10:17:31;;;;;;;3.10;2.90;;;40.90;42.90;;;;;;5065653;28;20191;-76
2021/08/24 10:19:57;;;;;;;2.92;2.83;;;41.20;42.10;;;;;;5069579;28;20214;-76
2021/08/24 10:22:36;;;;;;;4.63;3.15;;;41.50;43.90;;;;;;5071930;28;20248;-76
2021/08/24 10:25:09;;;;;;;3.10;3.00;;;41.70;41.50;;;;;;5070244;28;20675;-76
2021/08/24 10:28:00;;;;;;;3.33;3.05;;;41.60;41.90;;;;;;5068948;28;20197;-76
2021/08/24 10:30:41;;;;;;;3.00;2.90;;;41.60;40.50;;;;;;5013982;28;20589;-76
2021/08/24 10:33:22;;;;;;;3.42;3.20;;;41.40;40.70;;;;;;5001670;28;20661;-76
2021/08/24 10:35:55;;;;;;;8.80;4.00;;;41.40;42.20;;;;;;5008612;28;20200;-76
2021/08/24 10:38:53;;;;;;;3.45;3.03;;;41.60;42.80;;;;;;5012337;28;20192;-76
2021/08/24 10:41:21;;;;;;;3.28;3.08;;;41.80;40.70;;;;;;5016199;28;20242;-76
2021/08/24 10:43:56;;;;;;;3.40;3.20;;;42.20;41.80;;;;;;5014423;28;20263;-75
2021/08/24 10:46:23;;;;;;;2.83;2.80;;;42.50;41.30;;;;;;5013019;28;20206;-76
2021/08/24 10:48:49;;;;;;;4.95;3.05;;;42.90;41.40;;;;;;5011942;28;20187;-76
2021/08/24 10:51:21;;;;;;;4.65;2.90;;;43.30;40.80;;;;;;5015403;28;20196;-76
2021/08/24 10:54:23;;;;;;;3.38;3.30;;;43.80;40.70;;;;;;5014653;28;20216;-76
2021/08/24 10:56:53;;;;;;;3.65;3.55;;;44.20;39.10;;;;;;5011338;28;20599;-76
2021/08/24 10:59:36;;;;;;;6.43;2.67;;;44.70;40.60;;;;;;5010797;28;20198;-76
2021/08/24 11:02:28;;;;;;;3.20;3.10;;;45.00;38.10;;;;;;4995684;28;20227;-76
2021/08/24 11:05:31;;;;;;;3.60;3.40;;;45.20;38.10;;;;;;5011726;28;20195;-76
2021/08/24 11:08:09;;;;;;;3.20;3.05;;;45.50;37.70;;;;;;5053248;28;20193;-76
2021/08/24 11:11:09;;;;;;;3.22;3.13;;;45.70;38.50;;;;;;5071675;28;20598;-76
2021/08/24 11:13:44;;;;;;;3.10;3.00;;;45.80;37.50;;;;;;5006680;28;20212;-76
2021/08/24 11:16:15;;;;;;;3.00;2.90;;;45.80;39.70;;;;;;5012080;28;20583;-76
2021/08/24 11:18:48;;;;;;;3.13;2.70;;;46.00;39.80;;;;;;5005666;28;20204;-76
2021/08/24 11:21:34;;;;;;;3.17;2.97;;;46.30;37.90;;;;;;5004814;28;20306;-76
2021/08/24 11:24:28;;;;;;;3.25;3.15;;;46.50;39.10;;;;;;5007341;28;20231;-76
2021/08/24 11:27:24;;;;;;;3.03;2.70;;;46.60;37.90;;;;;;5005533;28;20204;-76
2021/08/24 11:29:56;;;;;;;3.20;3.10;;;46.80;36.50;;;;;;5009595;28;20196;-76
2021/08/24 11:32:34;;;;;;;4.22;3.30;;;46.90;36.50;;;;;;5006649;28;20187;-76
2021/08/24 11:35:09;;;;;;;3.10;3.00;;;47.00;36.20;;;;;;5010459;28;20202;-76
2021/08/24 11:37:52;;;;;;;2.80;2.67;;;46.90;37.40;;;;;;5011442;28;20195;-76
2021/08/24 11:40:25;;;;;;;3.42;3.33;;;46.90;36.40;;;;;;5014338;28;20192;-76
2021/08/24 11:42:57;;;;;;;3.33;3.08;;;46.90;38.40;;;;;;5015825;28;20223;-76
2021/08/24 11:45:50;;;;;;;3.60;2.75;;;47.00;36.90;;;;;;5010958;28;20179;-77
2021/08/24 11:48:21;;;;;;;4.35;2.95;;;47.20;37.60;;;;;;5014233;28;20576;-76
2021/08/24 11:51:16;;;;;;;3.38;3.15;;;47.40;37.70;;;;;;5072820;28;20587;-76
2021/08/24 11:54:03;;;;;;;3.25;3.13;;;47.50;36.20;;;;;;5035912;28;20194;-76
2021/08/24 11:56:32;;;;;;;3.25;3.13;;;47.70;35.70;;;;;;5052485;28;20186;-76
2021/08/24 11:59:03;;;;;;;2.75;2.72;;;47.80;37.60;;;;;;5052037;28;20219;-76
2021/08/24 12:01:32;;;;;;;3.00;2.85;;;47.80;35.80;;;;;;5052425;28;20207;-76
2021/08/24 12:04:02;;;;;;;3.50;3.25;;;47.90;38.00;;;;;;5051342;28;20785;-76
2021/08/24 12:06:30;;;;;;;3.22;3.22;;;47.90;38.50;;;;;;5046560;28;20179;-76
2021/08/24 12:08:58;;;;;;;3.30;3.00;;;48.00;36.80;;;;;;5054538;28;20186;-76
2021/08/24 12:11:46;;;;;;;3.50;3.17;;;47.80;37.70;;;;;;5053829;28;20402;-76
2021/08/24 12:14:33;;;;;;;3.53;3.40;;;47.70;35.50;;;;;;5055855;28;20222;-74
2021/08/24 12:17:13;;;;;;;2.97;2.97;;;47.60;35.70;;;;;;5038674;28;20206;-74
2021/08/24 12:19:56;;;;;;;2.67;2.67;;;47.50;37.20;;;;;;5052421;28;20193;-77
2021/08/24 12:22:55;;;;;;;2.65;2.58;;;47.60;34.80;;;;;;5048349;28;20645;-75
2021/08/24 12:25:35;;;;;;;3.47;3.38;;;47.80;35.00;;;;;;5048936;28;20195;-75
2021/08/24 12:28:02;;;;;;;2.83;2.80;;;47.80;34.50;;;;;;5049055;28;20342;-74
2021/08/24 12:31:00;;;;;;;2.92;2.83;;;47.70;36.00;;;;;;5060527;28;20230;-75
2021/08/24 12:33:40;;;;;;;2.97;2.88;;;46.90;34.80;;;;;;5009052;28;20681;-75
2021/08/24 12:36:24;;;;;;;3.22;3.13;;;46.90;34.20;;;;;;5012562;28;20657;-75
2021/08/24 12:38:55;;;;;;;2.83;2.78;;;46.70;34.20;;;;;;5011493;28;20207;-75
2021/08/24 12:41:36;;;;;;;2.92;2.88;;;46.60;36.20;;;;;;5013800;28;20592;-76
2021/08/24 12:44:14;;;;;;;2.70;2.60;;;46.40;34.70;;;;;;5015866;28;20223;-75
2021/08/24 12:46:48;;;;;;;3.15;2.97;;;46.20;34.80;;;;;;4994072;28;20594;-76
2021/08/24 12:49:17;;;;;;;2.95;2.95;;;45.70;35.40;;;;;;5011680;28;20346;-75
2021/08/24 12:51:54;;;;;;;2.92;2.90;;;45.10;36.30;;;;;;4997957;28;20219;-75
2021/08/24 12:54:27;;;;;;;3.38;3.10;;;44.60;35.40;;;;;;5017341;28;20275;-76
2021/08/24 12:57:04;;;;;;;2.80;2.80;;;44.00;36.30;;;;;;5008936;28;21425;-76
2021/08/24 12:59:42;;;;;;;2.88;2.88;;;44.00;36.10;;;;;;5013864;28;20314;-75
2021/08/24 13:02:26;;;;;;;3.03;2.92;;;44.30;36.90;;;;;;5011923;28;20242;-75
2021/08/24 13:04:59;;;;;;;2.97;2.88;;;44.70;36.90;;;;;;5011182;28;20200;-74
2021/08/24 13:07:37;;;;;;;2.55;2.50;;;45.20;36.80;;;;;;5014757;28;20199;-73
2021/08/24 13:10:32;;;;;;;3.10;2.95;;;45.50;36.00;;;;;;5035765;28;20222;-74
2021/08/24 13:12:59;;;;;;;2.88;2.88;;;45.70;35.10;;;;;;5060454;28;20224;-74